sensor_id;sensor_type;location;lat;lon;timestamp;P1;durP1;ratioP1;P2;durP2;ratioP2
48487;SDS011;34289;48.572;13.378;2024-02-23T00:00:38;13.20;;;10.27;;
48487;SDS011;34289;48.572;13.378;2024-02-23T00:03:04;14.68;;;9.73;;
48487;SDS011;34289;48.572;13.378;2024-02-23T00:05:30;10.68;;;9.50;;
48487;SDS011;34289;48.572;13.378;2024-02-23T00:07:56;11.77;;;10.00;;
48487;SDS011;34289;48.572;13.378;2024-02-23T00:10:22;13.13;;;10.20;;
48487;SDS011;34289;48.572;13.378;2024-02-23T00:12:47;13.35;;;10.13;;
48487;SDS011;34289;48.572;13.378;2024-02-23T00:15:13;11.48;;;9.00;;
48487;SDS011;34289;48.572;13.378;2024-02-23T00:17:39;14.15;;;8.80;;
48487;SDS011;34289;48.572;13.378;2024-02-23T00:20:08;20.88;;;10.65;;
48487;SDS011;34289;48.572;13.378;2024-02-23T00:22:36;11.63;;;9.70;;
48487;SDS011;34289;48.572;13.378;2024-02-23T00:25:02;13.65;;;11.00;;
48487;SDS011;34289;48.572;13.378;2024-02-23T00:27:28;14.35;;;11.30;;
48487;SDS011;34289;48.572;13.378;2024-02-23T00:29:53;14.45;;;10.73;;
48487;SDS011;34289;48.572;13.378;2024-02-23T00:32:19;14.20;;;11.50;;
48487;SDS011;34289;48.572;13.378;2024-02-23T00:34:45;17.85;;;11.75;;
48487;SDS011;34289;48.572;13.378;2024-02-23T00:37:11;16.40;;;12.27;;
48487;SDS011;34289;48.572;13.378;2024-02-23T00:39:37;16.02;;;12.65;;
48487;SDS011;34289;48.572;13.378;2024-02-23T00:42:04;15.57;;;11.25;;
48487;SDS011;34289;48.572;13.378;2024-02-23T00:44:30;17.90;;;11.70;;
48487;SDS011;34289;48.572;13.378;2024-02-23T00:46:55;17.17;;;12.23;;
48487;SDS011;34289;48.572;13.378;2024-02-23T00:49:26;19.30;;;12.43;;
48487;SDS011;34289;48.572;13.378;2024-02-23T00:51:52;22.70;;;13.23;;
48487;SDS011;34289;48.572;13.378;2024-02-23T00:54:18;15.32;;;12.77;;
48487;SDS011;34289;48.572;13.378;2024-02-23T00:56:44;19.15;;;13.68;;
48487;SDS011;34289;48.572;13.378;2024-02-23T00:59:10;21.92;;;14.38;;
48487;SDS011;34289;48.572;13.378;2024-02-23T01:01:36;22.48;;;13.65;;
48487;SDS011;34289;48.572;13.378;2024-02-23T01:04:02;23.20;;;13.05;;
48487;SDS011;34289;48.572;13.378;2024-02-23T01:06:28;17.42;;;12.52;;
48487;SDS011;34289;48.572;13.378;2024-02-23T01:08:54;20.85;;;13.20;;
48487;SDS011;34289;48.572;13.378;2024-02-23T01:11:20;19.30;;;13.05;;
48487;SDS011;34289;48.572;13.378;2024-02-23T01:13:46;23.95;;;13.10;;
48487;SDS011;34289;48.572;13.378;2024-02-23T01:16:12;20.38;;;13.93;;
48487;SDS011;34289;48.572;13.378;2024-02-23T01:18:38;17.85;;;13.00;;
48487;SDS011;34289;48.572;13.378;2024-02-23T01:21:04;19.17;;;13.32;;
48487;SDS011;34289;48.572;13.378;2024-02-23T01:23:30;16.30;;;13.38;;
48487;SDS011;34289;48.572;13.378;2024-02-23T01:25:56;20.70;;;13.20;;
48487;SDS011;34289;48.572;13.378;2024-02-23T01:28:24;13.90;;;12.15;;
48487;SDS011;34289;48.572;13.378;2024-02-23T01:30:50;15.02;;;10.75;;
48487;SDS011;34289;48.572;13.378;2024-02-23T01:33:16;18.33;;;10.60;;
48487;SDS011;34289;48.572;13.378;2024-02-23T01:35:42;14.45;;;10.02;;
48487;SDS011;34289;48.572;13.378;2024-02-23T01:38:08;13.23;;;8.88;;
48487;SDS011;34289;48.572;13.378;2024-02-23T01:40:34;11.77;;;8.20;;
48487;SDS011;34289;48.572;13.378;2024-02-23T01:43:01;6.88;;;5.70;;
48487;SDS011;34289;48.572;13.378;2024-02-23T01:45:27;9.80;;;5.50;;
48487;SDS011;34289;48.572;13.378;2024-02-23T01:47:54;7.00;;;5.82;;
48487;SDS011;34289;48.572;13.378;2024-02-23T01:50:19;6.00;;;5.35;;
48487;SDS011;34289;48.572;13.378;2024-02-23T01:52:45;5.70;;;4.15;;
48487;SDS011;34289;48.572;13.378;2024-02-23T01:55:11;5.53;;;4.18;;
48487;SDS011;34289;48.572;13.378;2024-02-23T01:57:37;5.18;;;3.85;;
48487;SDS011;34289;48.572;13.378;2024-02-23T02:00:04;4.40;;;3.58;;
48487;SDS011;34289;48.572;13.378;2024-02-23T02:02:31;7.75;;;3.95;;
48487;SDS011;34289;48.572;13.378;2024-02-23T02:04:58;4.45;;;3.38;;
48487;SDS011;34289;48.572;13.378;2024-02-23T02:07:23;7.88;;;3.28;;
48487;SDS011;34289;48.572;13.378;2024-02-23T02:09:50;3.10;;;2.80;;
48487;SDS011;34289;48.572;13.378;2024-02-23T02:12:25;3.00;;;2.70;;
48487;SDS011;34289;48.572;13.378;2024-02-23T02:14:52;4.82;;;3.00;;
48487;SDS011;34289;48.572;13.378;2024-02-23T02:17:18;3.95;;;2.20;;
48487;SDS011;34289;48.572;13.378;2024-02-23T02:19:47;3.00;;;2.70;;
48487;SDS011;34289;48.572;13.378;2024-02-23T02:22:13;3.97;;;2.50;;
48487;SDS011;34289;48.572;13.378;2024-02-23T02:24:39;2.22;;;2.03;;
48487;SDS011;34289;48.572;13.378;2024-02-23T02:27:08;2.78;;;2.50;;
48487;SDS011;34289;48.572;13.378;2024-02-23T02:29:35;2.47;;;1.95;;
48487;SDS011;34289;48.572;13.378;2024-02-23T02:32:00;2.63;;;1.90;;
48487;SDS011;34289;48.572;13.378;2024-02-23T02:34:27;1.98;;;1.88;;
48487;SDS011;34289;48.572;13.378;2024-02-23T02:36:53;1.90;;;1.75;;
48487;SDS011;34289;48.572;13.378;2024-02-23T02:39:20;2.00;;;1.85;;
48487;SDS011;34289;48.572;13.378;2024-02-23T02:41:47;4.05;;;1.70;;
48487;SDS011;34289;48.572;13.378;2024-02-23T02:44:13;1.90;;;1.80;;
48487;SDS011;34289;48.572;13.378;2024-02-23T02:46:41;1.75;;;1.65;;
48487;SDS011;34289;48.572;13.378;2024-02-23T02:49:07;1.70;;;1.60;;
48487;SDS011;34289;48.572;13.378;2024-02-23T02:51:33;1.67;;;1.58;;
48487;SDS011;34289;48.572;13.378;2024-02-23T02:53:59;7.03;;;2.00;;
48487;SDS011;34289;48.572;13.378;2024-02-23T02:56:25;1.80;;;1.70;;
48487;SDS011;34289;48.572;13.378;2024-02-23T02:58:51;2.03;;;1.70;;
48487;SDS011;34289;48.572;13.378;2024-02-23T03:01:17;2.00;;;1.80;;
48487;SDS011;34289;48.572;13.378;2024-02-23T03:03:43;2.75;;;1.70;;
48487;SDS011;34289;48.572;13.378;2024-02-23T03:06:09;1.60;;;1.50;;
48487;SDS011;34289;48.572;13.378;2024-02-23T03:08:34;1.80;;;1.70;;
48487;SDS011;34289;48.572;13.378;2024-02-23T03:11:00;1.85;;;1.73;;
48487;SDS011;34289;48.572;13.378;2024-02-23T03:13:26;1.70;;;1.60;;
48487;SDS011;34289;48.572;13.378;2024-02-23T03:15:52;1.80;;;1.70;;
48487;SDS011;34289;48.572;13.378;2024-02-23T03:18:17;2.63;;;1.70;;
48487;SDS011;34289;48.572;13.378;2024-02-23T03:20:43;2.35;;;1.80;;
48487;SDS011;34289;48.572;13.378;2024-02-23T03:23:09;1.63;;;1.52;;
48487;SDS011;34289;48.572;13.378;2024-02-23T03:25:35;1.70;;;1.60;;
48487;SDS011;34289;48.572;13.378;2024-02-23T03:28:02;2.00;;;1.60;;
48487;SDS011;34289;48.572;13.378;2024-02-23T03:30:28;1.63;;;1.55;;
48487;SDS011;34289;48.572;13.378;2024-02-23T03:32:54;2.67;;;1.80;;
48487;SDS011;34289;48.572;13.378;2024-02-23T03:35:20;1.83;;;1.73;;
48487;SDS011;34289;48.572;13.378;2024-02-23T03:37:46;2.30;;;2.20;;
48487;SDS011;34289;48.572;13.378;2024-02-23T03:40:12;2.53;;;2.33;;
48487;SDS011;34289;48.572;13.378;2024-02-23T03:42:38;3.88;;;2.33;;
48487;SDS011;34289;48.572;13.378;2024-02-23T03:45:04;3.58;;;2.53;;
48487;SDS011;34289;48.572;13.378;2024-02-23T03:47:30;5.50;;;2.53;;
48487;SDS011;34289;48.572;13.378;2024-02-23T03:49:56;2.65;;;2.45;;
48487;SDS011;34289;48.572;13.378;2024-02-23T03:52:21;3.13;;;2.50;;
48487;SDS011;34289;48.572;13.378;2024-02-23T03:54:47;4.57;;;2.30;;
48487;SDS011;34289;48.572;13.378;2024-02-23T03:57:14;2.38;;;2.28;;
48487;SDS011;34289;48.572;13.378;2024-02-23T03:59:40;2.20;;;2.10;;
48487;SDS011;34289;48.572;13.378;2024-02-23T04:02:19;2.40;;;2.30;;
48487;SDS011;34289;48.572;13.378;2024-02-23T04:04:45;2.30;;;2.20;;
48487;SDS011;34289;48.572;13.378;2024-02-23T04:07:11;2.28;;;2.17;;
48487;SDS011;34289;48.572;13.378;2024-02-23T04:09:37;2.30;;;2.20;;
48487;SDS011;34289;48.572;13.378;2024-02-23T04:12:02;2.20;;;2.10;;
48487;SDS011;34289;48.572;13.378;2024-02-23T04:14:28;2.30;;;2.20;;
48487;SDS011;34289;48.572;13.378;2024-02-23T04:16:54;2.95;;;1.90;;
48487;SDS011;34289;48.572;13.378;2024-02-23T04:19:20;1.90;;;1.80;;
48487;SDS011;34289;48.572;13.378;2024-02-23T04:21:46;2.00;;;1.80;;
48487;SDS011;34289;48.572;13.378;2024-02-23T04:24:12;2.65;;;1.83;;
48487;SDS011;34289;48.572;13.378;2024-02-23T04:26:38;1.60;;;1.50;;
48487;SDS011;34289;48.572;13.378;2024-02-23T04:29:04;1.90;;;1.67;;
48487;SDS011;34289;48.572;13.378;2024-02-23T04:31:30;1.60;;;1.50;;
48487;SDS011;34289;48.572;13.378;2024-02-23T04:33:57;1.60;;;1.50;;
48487;SDS011;34289;48.572;13.378;2024-02-23T04:36:23;1.90;;;1.80;;
48487;SDS011;34289;48.572;13.378;2024-02-23T04:38:48;5.13;;;2.30;;
48487;SDS011;34289;48.572;13.378;2024-02-23T04:41:15;3.40;;;2.65;;
48487;SDS011;34289;48.572;13.378;2024-02-23T04:43:46;3.17;;;2.30;;
48487;SDS011;34289;48.572;13.378;2024-02-23T04:46:11;2.00;;;1.90;;
48487;SDS011;34289;48.572;13.378;2024-02-23T04:48:38;4.38;;;2.22;;
48487;SDS011;34289;48.572;13.378;2024-02-23T04:51:04;2.30;;;2.20;;
48487;SDS011;34289;48.572;13.378;2024-02-23T04:53:31;1.95;;;1.85;;
48487;SDS011;34289;48.572;13.378;2024-02-23T04:55:57;2.30;;;2.20;;
48487;SDS011;34289;48.572;13.378;2024-02-23T04:58:23;2.30;;;2.20;;
48487;SDS011;34289;48.572;13.378;2024-02-23T05:00:49;2.10;;;2.00;;
48487;SDS011;34289;48.572;13.378;2024-02-23T05:03:15;2.25;;;2.05;;
48487;SDS011;34289;48.572;13.378;2024-02-23T05:05:41;1.98;;;1.83;;
48487;SDS011;34289;48.572;13.378;2024-02-23T05:08:07;2.38;;;2.17;;
48487;SDS011;34289;48.572;13.378;2024-02-23T05:10:33;4.20;;;2.15;;
48487;SDS011;34289;48.572;13.378;2024-02-23T05:12:59;4.63;;;2.20;;
48487;SDS011;34289;48.572;13.378;2024-02-23T05:15:25;2.45;;;2.10;;
48487;SDS011;34289;48.572;13.378;2024-02-23T05:17:51;3.45;;;2.17;;
48487;SDS011;34289;48.572;13.378;2024-02-23T05:20:16;2.30;;;2.10;;
48487;SDS011;34289;48.572;13.378;2024-02-23T05:22:43;2.40;;;2.20;;
48487;SDS011;34289;48.572;13.378;2024-02-23T05:25:09;2.38;;;2.17;;
48487;SDS011;34289;48.572;13.378;2024-02-23T05:27:34;2.30;;;2.20;;
48487;SDS011;34289;48.572;13.378;2024-02-23T05:30:00;3.83;;;2.28;;
48487;SDS011;34289;48.572;13.378;2024-02-23T05:32:25;2.20;;;2.00;;
48487;SDS011;34289;48.572;13.378;2024-02-23T05:34:52;2.10;;;2.00;;
48487;SDS011;34289;48.572;13.378;2024-02-23T05:37:19;3.35;;;2.55;;
48487;SDS011;34289;48.572;13.378;2024-02-23T05:39:44;2.40;;;2.25;;
48487;SDS011;34289;48.572;13.378;2024-02-23T05:42:11;4.38;;;2.33;;
48487;SDS011;34289;48.572;13.378;2024-02-23T05:44:37;2.40;;;2.20;;
48487;SDS011;34289;48.572;13.378;2024-02-23T05:47:04;2.97;;;2.30;;
48487;SDS011;34289;48.572;13.378;2024-02-23T05:49:30;2.15;;;1.95;;
48487;SDS011;34289;48.572;13.378;2024-02-23T05:51:55;6.60;;;2.30;;
48487;SDS011;34289;48.572;13.378;2024-02-23T05:54:22;5.47;;;2.42;;
48487;SDS011;34289;48.572;13.378;2024-02-23T05:56:47;5.97;;;3.65;;
48487;SDS011;34289;48.572;13.378;2024-02-23T05:59:13;5.05;;;3.15;;
48487;SDS011;34289;48.572;13.378;2024-02-23T06:01:39;5.25;;;3.60;;
48487;SDS011;34289;48.572;13.378;2024-02-23T06:04:05;3.38;;;2.88;;
48487;SDS011;34289;48.572;13.378;2024-02-23T06:06:31;3.17;;;2.85;;
48487;SDS011;34289;48.572;13.378;2024-02-23T06:08:57;2.03;;;1.90;;
48487;SDS011;34289;48.572;13.378;2024-02-23T06:11:23;2.53;;;1.90;;
48487;SDS011;34289;48.572;13.378;2024-02-23T06:13:49;1.80;;;1.70;;
48487;SDS011;34289;48.572;13.378;2024-02-23T06:16:15;1.85;;;1.75;;
48487;SDS011;34289;48.572;13.378;2024-02-23T06:18:41;2.35;;;1.70;;
48487;SDS011;34289;48.572;13.378;2024-02-23T06:21:14;2.47;;;2.28;;
48487;SDS011;34289;48.572;13.378;2024-02-23T06:23:40;2.80;;;1.80;;
48487;SDS011;34289;48.572;13.378;2024-02-23T06:26:06;3.38;;;2.10;;
48487;SDS011;34289;48.572;13.378;2024-02-23T06:28:32;3.70;;;1.92;;
48487;SDS011;34289;48.572;13.378;2024-02-23T06:30:58;2.30;;;2.03;;
48487;SDS011;34289;48.572;13.378;2024-02-23T06:33:24;2.28;;;1.92;;
48487;SDS011;34289;48.572;13.378;2024-02-23T06:35:50;3.22;;;2.03;;
48487;SDS011;34289;48.572;13.378;2024-02-23T06:38:17;4.18;;;2.20;;
48487;SDS011;34289;48.572;13.378;2024-02-23T06:40:43;2.42;;;2.20;;
48487;SDS011;34289;48.572;13.378;2024-02-23T06:43:08;2.10;;;2.00;;
48487;SDS011;34289;48.572;13.378;2024-02-23T06:45:34;2.47;;;2.20;;
48487;SDS011;34289;48.572;13.378;2024-02-23T06:48:00;2.88;;;2.70;;
48487;SDS011;34289;48.572;13.378;2024-02-23T06:50:26;2.30;;;1.98;;
48487;SDS011;34289;48.572;13.378;2024-02-23T06:52:52;2.53;;;2.30;;
48487;SDS011;34289;48.572;13.378;2024-02-23T06:55:19;2.80;;;2.60;;
48487;SDS011;34289;48.572;13.378;2024-02-23T06:57:44;2.45;;;2.25;;
48487;SDS011;34289;48.572;13.378;2024-02-23T07:00:10;4.40;;;2.28;;
48487;SDS011;34289;48.572;13.378;2024-02-23T07:02:36;4.85;;;2.35;;
48487;SDS011;34289;48.572;13.378;2024-02-23T07:05:03;2.50;;;2.30;;
48487;SDS011;34289;48.572;13.378;2024-02-23T07:07:32;2.47;;;2.28;;
48487;SDS011;34289;48.572;13.378;2024-02-23T07:10:01;3.15;;;2.60;;
48487;SDS011;34289;48.572;13.378;2024-02-23T07:12:27;5.18;;;3.10;;
48487;SDS011;34289;48.572;13.378;2024-02-23T07:14:54;3.58;;;3.25;;
48487;SDS011;34289;48.572;13.378;2024-02-23T07:17:20;2.90;;;2.70;;
48487;SDS011;34289;48.572;13.378;2024-02-23T07:19:46;2.72;;;2.53;;
48487;SDS011;34289;48.572;13.378;2024-02-23T07:22:12;3.88;;;2.72;;
48487;SDS011;34289;48.572;13.378;2024-02-23T07:24:42;2.50;;;2.40;;
48487;SDS011;34289;48.572;13.378;2024-02-23T07:27:07;4.10;;;2.38;;
48487;SDS011;34289;48.572;13.378;2024-02-23T07:29:33;6.00;;;2.30;;
48487;SDS011;34289;48.572;13.378;2024-02-23T07:31:59;4.50;;;2.80;;
48487;SDS011;34289;48.572;13.378;2024-02-23T07:34:25;7.90;;;2.83;;
48487;SDS011;34289;48.572;13.378;2024-02-23T07:36:54;4.40;;;2.60;;
48487;SDS011;34289;48.572;13.378;2024-02-23T07:39:19;4.30;;;2.67;;
48487;SDS011;34289;48.572;13.378;2024-02-23T07:41:46;2.60;;;2.40;;
48487;SDS011;34289;48.572;13.378;2024-02-23T07:44:12;2.92;;;2.70;;
48487;SDS011;34289;48.572;13.378;2024-02-23T07:46:37;3.30;;;2.50;;
48487;SDS011;34289;48.572;13.378;2024-02-23T07:49:04;2.47;;;2.28;;
48487;SDS011;34289;48.572;13.378;2024-02-23T07:51:31;2.40;;;2.20;;
48487;SDS011;34289;48.572;13.378;2024-02-23T07:53:57;2.60;;;2.40;;
48487;SDS011;34289;48.572;13.378;2024-02-23T07:56:23;2.80;;;2.25;;
48487;SDS011;34289;48.572;13.378;2024-02-23T07:58:49;2.67;;;2.10;;
48487;SDS011;34289;48.572;13.378;2024-02-23T08:01:14;3.60;;;2.13;;
48487;SDS011;34289;48.572;13.378;2024-02-23T08:03:41;2.53;;;2.33;;
48487;SDS011;34289;48.572;13.378;2024-02-23T08:06:07;2.35;;;2.25;;
48487;SDS011;34289;48.572;13.378;2024-02-23T08:08:33;2.20;;;2.10;;
48487;SDS011;34289;48.572;13.378;2024-02-23T08:11:02;2.75;;;2.50;;
48487;SDS011;34289;48.572;13.378;2024-02-23T08:13:28;3.60;;;2.40;;
48487;SDS011;34289;48.572;13.378;2024-02-23T08:15:53;2.90;;;2.38;;
48487;SDS011;34289;48.572;13.378;2024-02-23T08:18:19;2.50;;;2.08;;
48487;SDS011;34289;48.572;13.378;2024-02-23T08:20:47;3.20;;;2.90;;
48487;SDS011;34289;48.572;13.378;2024-02-23T08:23:13;2.70;;;2.20;;
48487;SDS011;34289;48.572;13.378;2024-02-23T08:25:39;2.20;;;2.10;;
48487;SDS011;34289;48.572;13.378;2024-02-23T08:28:05;2.25;;;2.00;;
48487;SDS011;34289;48.572;13.378;2024-02-23T08:30:31;2.40;;;2.22;;
48487;SDS011;34289;48.572;13.378;2024-02-23T08:32:57;2.42;;;2.03;;
48487;SDS011;34289;48.572;13.378;2024-02-23T08:35:23;1.90;;;1.80;;
48487;SDS011;34289;48.572;13.378;2024-02-23T08:37:49;3.75;;;2.20;;
48487;SDS011;34289;48.572;13.378;2024-02-23T08:40:15;2.92;;;2.72;;
48487;SDS011;34289;48.572;13.378;2024-02-23T08:42:41;2.70;;;2.00;;
48487;SDS011;34289;48.572;13.378;2024-02-23T08:45:07;2.28;;;2.08;;
48487;SDS011;34289;48.572;13.378;2024-02-23T08:47:34;2.00;;;1.90;;
48487;SDS011;34289;48.572;13.378;2024-02-23T08:50:01;2.30;;;2.13;;
48487;SDS011;34289;48.572;13.378;2024-02-23T08:52:27;4.70;;;2.60;;
48487;SDS011;34289;48.572;13.378;2024-02-23T08:54:53;2.45;;;2.35;;
48487;SDS011;34289;48.572;13.378;2024-02-23T08:57:19;3.22;;;3.00;;
48487;SDS011;34289;48.572;13.378;2024-02-23T08:59:47;3.05;;;2.85;;
48487;SDS011;34289;48.572;13.378;2024-02-23T09:02:13;3.00;;;2.90;;
48487;SDS011;34289;48.572;13.378;2024-02-23T09:04:39;3.20;;;3.00;;
48487;SDS011;34289;48.572;13.378;2024-02-23T09:07:06;3.20;;;3.00;;
48487;SDS011;34289;48.572;13.378;2024-02-23T09:09:31;4.13;;;3.90;;
48487;SDS011;34289;48.572;13.378;2024-02-23T09:11:57;4.45;;;4.10;;
48487;SDS011;34289;48.572;13.378;2024-02-23T09:14:23;5.03;;;4.50;;
48487;SDS011;34289;48.572;13.378;2024-02-23T09:16:50;4.55;;;4.25;;
48487;SDS011;34289;48.572;13.378;2024-02-23T09:19:16;4.30;;;4.10;;
48487;SDS011;34289;48.572;13.378;2024-02-23T09:21:42;5.18;;;4.68;;
48487;SDS011;34289;48.572;13.378;2024-02-23T09:24:07;5.30;;;5.00;;
48487;SDS011;34289;48.572;13.378;2024-02-23T09:26:33;5.30;;;5.00;;
48487;SDS011;34289;48.572;13.378;2024-02-23T09:28:59;6.40;;;6.00;;
48487;SDS011;34289;48.572;13.378;2024-02-23T09:31:24;6.40;;;6.10;;
48487;SDS011;34289;48.572;13.378;2024-02-23T09:33:53;6.82;;;6.10;;
48487;SDS011;34289;48.572;13.378;2024-02-23T09:36:19;7.00;;;6.60;;
48487;SDS011;34289;48.572;13.378;2024-02-23T09:38:44;6.60;;;6.20;;
48487;SDS011;34289;48.572;13.378;2024-02-23T09:41:20;6.35;;;6.05;;
48487;SDS011;34289;48.572;13.378;2024-02-23T09:43:47;7.47;;;6.97;;
48487;SDS011;34289;48.572;13.378;2024-02-23T09:46:18;6.85;;;6.10;;
48487;SDS011;34289;48.572;13.378;2024-02-23T09:48:44;5.20;;;4.90;;
48487;SDS011;34289;48.572;13.378;2024-02-23T09:51:11;5.00;;;4.70;;
48487;SDS011;34289;48.572;13.378;2024-02-23T09:53:38;4.57;;;4.20;;
48487;SDS011;34289;48.572;13.378;2024-02-23T09:56:04;4.22;;;3.97;;
48487;SDS011;34289;48.572;13.378;2024-02-23T09:58:31;3.80;;;3.60;;
48487;SDS011;34289;48.572;13.378;2024-02-23T10:00:58;4.00;;;3.70;;
48487;SDS011;34289;48.572;13.378;2024-02-23T10:03:27;4.60;;;4.20;;
48487;SDS011;34289;48.572;13.378;2024-02-23T10:05:56;4.25;;;4.05;;
48487;SDS011;34289;48.572;13.378;2024-02-23T10:08:22;4.13;;;3.90;;
48487;SDS011;34289;48.572;13.378;2024-02-23T10:10:48;4.15;;;3.85;;
48487;SDS011;34289;48.572;13.378;2024-02-23T10:13:18;4.25;;;4.03;;
48487;SDS011;34289;48.572;13.378;2024-02-23T10:15:45;4.30;;;4.10;;
48487;SDS011;34289;48.572;13.378;2024-02-23T10:18:18;4.43;;;4.10;;
48487;SDS011;34289;48.572;13.378;2024-02-23T10:20:44;4.68;;;4.40;;
48487;SDS011;34289;48.572;13.378;2024-02-23T10:23:10;4.85;;;4.20;;
48487;SDS011;34289;48.572;13.378;2024-02-23T10:25:36;4.07;;;3.80;;
48487;SDS011;34289;48.572;13.378;2024-02-23T10:28:03;4.25;;;3.90;;
48487;SDS011;34289;48.572;13.378;2024-02-23T10:30:30;4.50;;;4.20;;
48487;SDS011;34289;48.572;13.378;2024-02-23T10:32:56;4.50;;;4.13;;
48487;SDS011;34289;48.572;13.378;2024-02-23T10:35:23;4.50;;;4.20;;
48487;SDS011;34289;48.572;13.378;2024-02-23T10:37:49;4.50;;;4.20;;
48487;SDS011;34289;48.572;13.378;2024-02-23T10:40:17;4.50;;;4.20;;
48487;SDS011;34289;48.572;13.378;2024-02-23T10:42:44;4.60;;;4.20;;
48487;SDS011;34289;48.572;13.378;2024-02-23T10:45:19;4.83;;;4.43;;
48487;SDS011;34289;48.572;13.378;2024-02-23T10:47:50;4.70;;;4.40;;
48487;SDS011;34289;48.572;13.378;2024-02-23T10:50:16;4.80;;;4.50;;
48487;SDS011;34289;48.572;13.378;2024-02-23T10:52:44;4.82;;;4.40;;
48487;SDS011;34289;48.572;13.378;2024-02-23T10:55:11;5.68;;;4.38;;
48487;SDS011;34289;48.572;13.378;2024-02-23T10:57:39;4.60;;;4.30;;
48487;SDS011;34289;48.572;13.378;2024-02-23T11:00:05;4.63;;;4.32;;
48487;SDS011;34289;48.572;13.378;2024-02-23T11:02:36;7.47;;;4.30;;
48487;SDS011;34289;48.572;13.378;2024-02-23T11:05:08;4.47;;;4.07;;
48487;SDS011;34289;48.572;13.378;2024-02-23T11:07:40;4.40;;;4.10;;
48487;SDS011;34289;48.572;13.378;2024-02-23T11:10:06;6.90;;;6.22;;
48487;SDS011;34289;48.572;13.378;2024-02-23T11:12:34;5.25;;;4.70;;
48487;SDS011;34289;48.572;13.378;2024-02-23T11:15:00;4.80;;;4.40;;
48487;SDS011;34289;48.572;13.378;2024-02-23T11:17:27;4.43;;;4.07;;
48487;SDS011;34289;48.572;13.378;2024-02-23T11:19:55;4.60;;;4.30;;
48487;SDS011;34289;48.572;13.378;2024-02-23T11:22:25;4.72;;;4.43;;
48487;SDS011;34289;48.572;13.378;2024-02-23T11:24:51;5.28;;;4.82;;
48487;SDS011;34289;48.572;13.378;2024-02-23T11:27:17;4.60;;;4.30;;
48487;SDS011;34289;48.572;13.378;2024-02-23T11:29:46;4.82;;;4.53;;
48487;SDS011;34289;48.572;13.378;2024-02-23T11:32:16;4.22;;;4.03;;
48487;SDS011;34289;48.572;13.378;2024-02-23T11:34:54;5.82;;;5.50;;
48487;SDS011;34289;48.572;13.378;2024-02-23T11:37:21;4.30;;;4.10;;
48487;SDS011;34289;48.572;13.378;2024-02-23T11:39:47;4.13;;;3.92;;
48487;SDS011;34289;48.572;13.378;2024-02-23T11:42:13;4.57;;;4.25;;
48487;SDS011;34289;48.572;13.378;2024-02-23T11:44:39;4.50;;;4.20;;
48487;SDS011;34289;48.572;13.378;2024-02-23T11:47:06;4.32;;;4.03;;
48487;SDS011;34289;48.572;13.378;2024-02-23T11:49:32;4.63;;;4.32;;
48487;SDS011;34289;48.572;13.378;2024-02-23T11:51:58;4.82;;;4.60;;
48487;SDS011;34289;48.572;13.378;2024-02-23T11:54:24;5.00;;;4.60;;
48487;SDS011;34289;48.572;13.378;2024-02-23T11:56:50;5.32;;;4.90;;
48487;SDS011;34289;48.572;13.378;2024-02-23T11:59:18;4.97;;;4.47;;
48487;SDS011;34289;48.572;13.378;2024-02-23T12:01:45;4.10;;;3.90;;
48487;SDS011;34289;48.572;13.378;2024-02-23T12:04:15;4.88;;;3.85;;
48487;SDS011;34289;48.572;13.378;2024-02-23T12:06:43;3.72;;;3.50;;
48487;SDS011;34289;48.572;13.378;2024-02-23T12:09:10;3.72;;;3.22;;
48487;SDS011;34289;48.572;13.378;2024-02-23T12:11:37;3.90;;;3.30;;
48487;SDS011;34289;48.572;13.378;2024-02-23T12:14:03;6.43;;;2.80;;
48487;SDS011;34289;48.572;13.378;2024-02-23T12:16:33;3.30;;;3.03;;
48487;SDS011;34289;48.572;13.378;2024-02-23T12:19:00;4.32;;;3.00;;
48487;SDS011;34289;48.572;13.378;2024-02-23T12:21:27;3.83;;;3.08;;
48487;SDS011;34289;48.572;13.378;2024-02-23T12:23:53;2.60;;;2.45;;
48487;SDS011;34289;48.572;13.378;2024-02-23T12:26:19;4.15;;;2.45;;
48487;SDS011;34289;48.572;13.378;2024-02-23T12:28:46;2.75;;;2.55;;
48487;SDS011;34289;48.572;13.378;2024-02-23T12:31:11;2.88;;;2.60;;
48487;SDS011;34289;48.572;13.378;2024-02-23T12:33:37;4.43;;;2.60;;
48487;SDS011;34289;48.572;13.378;2024-02-23T12:36:07;2.95;;;2.60;;
48487;SDS011;34289;48.572;13.378;2024-02-23T12:38:34;2.60;;;2.40;;
48487;SDS011;34289;48.572;13.378;2024-02-23T12:41:01;3.25;;;2.95;;
48487;SDS011;34289;48.572;13.378;2024-02-23T12:43:27;3.00;;;2.80;;
48487;SDS011;34289;48.572;13.378;2024-02-23T12:45:55;3.35;;;2.60;;
48487;SDS011;34289;48.572;13.378;2024-02-23T12:48:21;2.83;;;2.60;;
48487;SDS011;34289;48.572;13.378;2024-02-23T12:50:47;2.70;;;2.50;;
48487;SDS011;34289;48.572;13.378;2024-02-23T12:53:29;3.00;;;2.70;;
48487;SDS011;34289;48.572;13.378;2024-02-23T12:55:57;6.88;;;2.60;;
48487;SDS011;34289;48.572;13.378;2024-02-23T12:58:22;2.90;;;2.53;;
48487;SDS011;34289;48.572;13.378;2024-02-23T13:00:48;3.83;;;2.30;;
48487;SDS011;34289;48.572;13.378;2024-02-23T13:03:14;2.92;;;2.42;;
48487;SDS011;34289;48.572;13.378;2024-02-23T13:05:40;2.10;;;2.00;;
48487;SDS011;34289;48.572;13.378;2024-02-23T13:08:06;2.50;;;2.30;;
48487;SDS011;34289;48.572;13.378;2024-02-23T13:10:32;4.53;;;2.70;;
48487;SDS011;34289;48.572;13.378;2024-02-23T13:13:00;4.43;;;2.72;;
48487;SDS011;34289;48.572;13.378;2024-02-23T13:15:25;2.60;;;2.40;;
48487;SDS011;34289;48.572;13.378;2024-02-23T13:17:51;4.55;;;2.80;;
48487;SDS011;34289;48.572;13.378;2024-02-23T13:20:17;2.75;;;2.55;;
48487;SDS011;34289;48.572;13.378;2024-02-23T13:22:43;6.25;;;2.75;;
48487;SDS011;34289;48.572;13.378;2024-02-23T13:25:09;2.97;;;2.47;;
48487;SDS011;34289;48.572;13.378;2024-02-23T13:27:34;2.60;;;2.40;;
48487;SDS011;34289;48.572;13.378;2024-02-23T13:30:01;3.53;;;3.30;;
48487;SDS011;34289;48.572;13.378;2024-02-23T13:32:27;3.20;;;2.90;;
48487;SDS011;34289;48.572;13.378;2024-02-23T13:34:53;5.03;;;3.70;;
48487;SDS011;34289;48.572;13.378;2024-02-23T13:37:19;3.47;;;3.28;;
48487;SDS011;34289;48.572;13.378;2024-02-23T13:39:45;2.90;;;2.70;;
48487;SDS011;34289;48.572;13.378;2024-02-23T13:42:11;2.70;;;2.60;;
48487;SDS011;34289;48.572;13.378;2024-02-23T13:44:37;3.20;;;2.67;;
48487;SDS011;34289;48.572;13.378;2024-02-23T13:47:03;2.47;;;2.38;;
48487;SDS011;34289;48.572;13.378;2024-02-23T13:49:29;3.00;;;2.80;;
48487;SDS011;34289;48.572;13.378;2024-02-23T13:51:55;2.50;;;2.40;;
48487;SDS011;34289;48.572;13.378;2024-02-23T13:54:21;2.35;;;2.25;;
48487;SDS011;34289;48.572;13.378;2024-02-23T13:56:47;2.42;;;2.22;;
48487;SDS011;34289;48.572;13.378;2024-02-23T13:59:13;2.90;;;2.70;;
48487;SDS011;34289;48.572;13.378;2024-02-23T14:01:39;2.50;;;2.40;;
48487;SDS011;34289;48.572;13.378;2024-02-23T14:04:05;2.22;;;2.13;;
48487;SDS011;34289;48.572;13.378;2024-02-23T14:06:32;2.13;;;2.03;;
48487;SDS011;34289;48.572;13.378;2024-02-23T14:08:58;3.60;;;2.00;;
48487;SDS011;34289;48.572;13.378;2024-02-23T14:11:23;2.00;;;1.90;;
48487;SDS011;34289;48.572;13.378;2024-02-23T14:13:50;2.10;;;2.00;;
48487;SDS011;34289;48.572;13.378;2024-02-23T14:16:16;3.80;;;2.10;;
48487;SDS011;34289;48.572;13.378;2024-02-23T14:18:41;2.30;;;2.20;;
48487;SDS011;34289;48.572;13.378;2024-02-23T14:21:09;2.15;;;2.03;;
48487;SDS011;34289;48.572;13.378;2024-02-23T14:23:35;1.95;;;1.85;;
48487;SDS011;34289;48.572;13.378;2024-02-23T14:26:03;2.10;;;2.00;;